createdAt,value
2018-03-16T00:00:22.518Z,10.33
2018-03-16T00:02:15.367Z,10.26
2018-03-16T00:03:15.346Z,10.19
2018-03-16T00:05:08.212Z,10.30
2018-03-16T00:06:08.176Z,10.19
2018-03-16T00:08:01.027Z,10.15
2018-03-16T00:09:01.005Z,10.17
2018-03-16T00:10:53.909Z,10.16
2018-03-16T00:11:53.872Z,10.15
2018-03-16T00:13:46.725Z,10.05
2018-03-16T00:14:46.720Z,10.01
2018-03-16T00:16:39.568Z,10.16
2018-03-16T00:17:39.530Z,10.22
2018-03-16T00:19:32.876Z,9.99
2018-03-16T00:20:32.851Z,9.91
2018-03-16T00:22:25.715Z,9.68
2018-03-16T00:23:25.679Z,9.79
2018-03-16T00:25:18.529Z,9.68
2018-03-16T00:26:18.511Z,9.86
2018-03-16T00:28:11.372Z,9.97
2018-03-16T00:29:11.340Z,9.95
2018-03-16T00:31:04.189Z,9.83
2018-03-16T00:32:04.167Z,9.74
2018-03-16T00:33:57.037Z,9.62
2018-03-16T00:34:57.000Z,9.74
2018-03-16T00:36:50.346Z,9.66
2018-03-16T00:37:50.326Z,9.64
2018-03-16T00:39:43.678Z,9.55
2018-03-16T00:40:43.642Z,9.65
2018-03-16T00:42:36.491Z,9.72
2018-03-16T00:43:36.471Z,9.62
2018-03-16T00:45:29.335Z,9.58
2018-03-16T00:46:29.299Z,9.43
2018-03-16T00:48:22.642Z,9.41
2018-03-16T00:49:22.620Z,9.61
2018-03-16T00:51:15.491Z,9.65
2018-03-16T00:52:15.455Z,9.58
2018-03-16T00:54:08.306Z,9.44
2018-03-16T00:55:08.285Z,9.54
2018-03-16T00:57:01.150Z,9.48
2018-03-16T00:58:01.114Z,9.56
2018-03-16T00:59:53.963Z,9.59
2018-03-16T01:00:53.942Z,9.62
2018-03-16T01:02:46.809Z,9.64
2018-03-16T01:03:46.769Z,9.58
2018-03-16T01:05:39.620Z,9.77
2018-03-16T01:06:39.599Z,9.73
2018-03-16T01:08:32.463Z,9.76
2018-03-16T01:09:32.426Z,9.58
2018-03-16T01:11:25.277Z,9.55
2018-03-16T01:12:25.256Z,9.58
2018-03-16T01:14:18.125Z,9.61
2018-03-16T01:15:18.089Z,9.59
2018-03-16T01:17:10.937Z,9.59
2018-03-16T01:18:10.915Z,9.54
2018-03-16T01:20:03.781Z,9.40
2018-03-16T01:21:03.755Z,9.44
2018-03-16T01:22:56.593Z,9.46
2018-03-16T01:23:56.571Z,9.43
2018-03-16T01:25:49.441Z,9.44
2018-03-16T01:26:49.398Z,9.44
2018-03-16T01:28:42.250Z,9.41
2018-03-16T01:29:42.225Z,9.46
2018-03-16T01:31:35.095Z,9.41
2018-03-16T01:32:35.054Z,9.44
2018-03-16T01:34:27.903Z,9.39
2018-03-16T01:35:27.882Z,9.36
2018-03-16T01:37:20.748Z,9.36
2018-03-16T01:38:20.716Z,9.34
2018-03-16T01:40:13.667Z,9.31
2018-03-16T01:41:13.567Z,9.26
2018-03-16T01:43:06.405Z,9.28
2018-03-16T01:44:06.370Z,9.37
2018-03-16T01:45:59.220Z,9.37
2018-03-16T01:46:59.196Z,9.26
2018-03-16T01:48:52.078Z,9.43
2018-03-16T01:49:52.032Z,9.37
2018-03-16T01:51:44.883Z,9.39
2018-03-16T01:52:44.858Z,9.41
2018-03-16T01:54:37.721Z,9.37
2018-03-16T01:55:37.685Z,9.29
2018-03-16T01:57:30.543Z,9.29
2018-03-16T01:58:30.524Z,9.36
2018-03-16T02:00:23.385Z,9.29
2018-03-16T02:01:23.346Z,9.31
2018-03-16T02:03:16.696Z,9.36
2018-03-16T02:04:16.677Z,9.39
2018-03-16T02:06:09.542Z,9.36
2018-03-16T02:07:09.504Z,9.40
2018-03-16T02:09:02.356Z,9.43
2018-03-16T02:10:02.335Z,9.44
2018-03-16T02:11:55.197Z,9.55
2018-03-16T02:12:55.171Z,9.59
2018-03-16T02:14:48.020Z,9.37
2018-03-16T02:15:47.993Z,9.51
2018-03-16T02:17:40.869Z,9.43
2018-03-16T02:18:40.836Z,9.39
2018-03-16T02:20:33.677Z,9.36
2018-03-16T02:21:33.658Z,9.44
2018-03-16T02:23:26.525Z,9.37
2018-03-16T02:24:26.488Z,9.43
2018-03-16T02:26:19.339Z,9.29
2018-03-16T02:27:19.315Z,9.32
2018-03-16T02:29:12.185Z,9.36
2018-03-16T02:30:12.143Z,9.37
2018-03-16T02:32:04.992Z,9.36
2018-03-16T02:33:04.973Z,9.28
2018-03-16T02:34:57.838Z,9.37
2018-03-16T02:35:57.799Z,9.31
2018-03-16T02:37:50.648Z,9.31
2018-03-16T02:38:50.627Z,9.29
2018-03-16T02:40:43.490Z,9.40
2018-03-16T02:41:43.456Z,9.26
2018-03-16T02:43:36.309Z,9.31
2018-03-16T02:44:36.288Z,9.31
2018-03-16T02:46:29.154Z,9.34
2018-03-16T02:47:29.115Z,9.29
2018-03-16T02:49:22.012Z,9.47
2018-03-16T02:50:21.939Z,9.29
2018-03-16T02:52:14.800Z,9.37
2018-03-16T02:53:14.767Z,9.25
2018-03-16T02:55:07.615Z,9.19
2018-03-16T02:56:07.601Z,9.14
2018-03-16T02:58:00.456Z,9.37
2018-03-16T02:59:00.421Z,9.28
2018-03-16T03:00:53.276Z,9.25
2018-03-16T03:01:53.258Z,9.25
2018-03-16T03:03:46.126Z,9.22
2018-03-16T03:04:46.082Z,9.22
2018-03-16T03:06:38.933Z,9.25
2018-03-16T03:07:38.915Z,9.22
2018-03-16T03:09:31.773Z,9.23
2018-03-16T03:10:31.740Z,9.31
2018-03-16T03:12:24.589Z,9.40
2018-03-16T03:13:24.570Z,9.37
2018-03-16T03:15:17.430Z,9.41
2018-03-16T03:16:17.396Z,9.26
2018-03-16T03:18:10.241Z,9.23
2018-03-16T03:19:10.220Z,9.39
2018-03-16T03:21:03.086Z,9.22
2018-03-16T03:22:03.046Z,9.22
2018-03-16T03:23:56.392Z,9.34
2018-03-16T03:24:56.379Z,9.41
2018-03-16T03:26:49.234Z,9.40
2018-03-16T03:27:49.199Z,9.39
2018-03-16T03:29:42.044Z,9.56
2018-03-16T03:30:42.031Z,9.54
2018-03-16T03:32:34.892Z,9.46
2018-03-16T03:33:34.858Z,9.54
2018-03-16T03:35:28.209Z,9.64
2018-03-16T03:36:28.194Z,9.74
2018-03-16T03:38:21.078Z,9.77
2018-03-16T03:39:21.013Z,9.77
2018-03-16T03:41:13.861Z,9.74
2018-03-16T03:42:13.847Z,9.89
2018-03-16T03:44:06.715Z,9.97
2018-03-16T03:45:06.673Z,9.83
2018-03-16T03:46:59.523Z,9.86
2018-03-16T03:47:59.501Z,9.76
2018-03-16T03:49:52.365Z,9.77
2018-03-16T03:50:52.330Z,9.66
2018-03-16T03:52:45.179Z,9.73
2018-03-16T03:53:45.153Z,9.74
2018-03-16T03:55:38.022Z,9.89
2018-03-16T03:56:37.982Z,9.76
2018-03-16T03:58:30.833Z,9.74
2018-03-16T03:59:30.810Z,9.77
2018-03-16T04:01:23.693Z,9.89
2018-03-16T04:02:23.646Z,9.84
2018-03-16T04:04:16.493Z,9.89
2018-03-16T04:05:16.473Z,9.83
2018-03-16T04:07:09.340Z,9.91
2018-03-16T04:08:09.305Z,9.83
2018-03-16T04:10:02.151Z,9.76
2018-03-16T04:11:02.132Z,9.74
2018-03-16T04:12:55.090Z,9.77
2018-03-16T04:13:54.960Z,9.76
2018-03-16T04:15:47.821Z,9.74
2018-03-16T04:16:47.814Z,9.76
2018-03-16T04:18:40.664Z,9.87
2018-03-16T04:19:40.626Z,9.80
2018-03-16T04:21:33.472Z,9.73
2018-03-16T04:22:33.453Z,9.73
2018-03-16T04:24:26.364Z,9.74
2018-03-16T04:25:26.325Z,9.74
2018-03-16T04:27:19.180Z,9.84
2018-03-16T04:28:19.154Z,9.97
2018-03-16T04:30:12.020Z,9.98
2018-03-16T04:31:11.986Z,9.83
2018-03-16T04:33:04.835Z,9.84
2018-03-16T04:34:04.812Z,9.69
2018-03-16T04:35:57.676Z,9.66
2018-03-16T04:36:57.642Z,9.77
2018-03-16T04:38:50.488Z,9.83
2018-03-16T04:39:50.470Z,9.77
2018-03-16T04:41:43.337Z,9.55
2018-03-16T04:42:43.300Z,9.62
2018-03-16T04:44:36.144Z,9.77
2018-03-16T04:45:36.124Z,9.74
2018-03-16T04:47:29.000Z,9.59
2018-03-16T04:48:28.965Z,9.37
2018-03-16T04:50:21.833Z,9.47
2018-03-16T04:51:21.792Z,9.58
2018-03-16T04:53:14.652Z,9.41
2018-03-16T04:54:14.619Z,9.22
2018-03-16T04:56:07.473Z,9.26
2018-03-16T04:57:07.449Z,9.22
2018-03-16T04:59:00.315Z,9.23
2018-03-16T05:00:00.278Z,9.23
2018-03-16T05:01:53.123Z,9.28
2018-03-16T05:02:53.104Z,9.25
2018-03-16T05:04:45.967Z,9.11
2018-03-16T05:05:45.931Z,9.11
2018-03-16T05:07:38.783Z,9.21
2018-03-16T05:08:38.765Z,9.04
2018-03-16T05:10:31.628Z,9.00
2018-03-16T05:11:31.593Z,9.03
2018-03-16T05:13:24.446Z,9.08
2018-03-16T05:14:24.424Z,8.95
2018-03-16T05:16:17.291Z,9.04
2018-03-16T05:17:17.256Z,9.06
2018-03-16T05:19:10.100Z,8.99
2018-03-16T05:20:10.082Z,8.97
2018-03-16T05:22:02.946Z,8.88
2018-03-16T05:23:02.907Z,8.94
2018-03-16T05:24:55.762Z,8.95
2018-03-16T05:25:55.738Z,8.97
2018-03-16T05:27:48.605Z,8.92
2018-03-16T05:28:48.574Z,8.91
2018-03-16T05:30:41.418Z,8.87
2018-03-16T05:31:41.398Z,8.92
2018-03-16T05:33:34.269Z,9.04
2018-03-16T05:34:34.233Z,8.97
2018-03-16T05:36:27.085Z,8.89
2018-03-16T05:37:27.061Z,8.84
2018-03-16T05:39:19.938Z,8.88
2018-03-16T05:40:19.898Z,8.81
2018-03-16T05:42:12.746Z,8.79
2018-03-16T05:43:12.725Z,8.73
2018-03-16T05:45:05.594Z,8.76
2018-03-16T05:46:05.552Z,8.82
2018-03-16T05:47:58.896Z,8.73
2018-03-16T05:48:58.875Z,8.73
2018-03-16T05:50:51.746Z,8.92
2018-03-16T05:51:51.700Z,8.89
2018-03-16T05:53:44.550Z,8.85
2018-03-16T05:54:44.533Z,8.74
2018-03-16T05:56:37.394Z,8.92
2018-03-16T05:57:37.356Z,8.91
2018-03-16T05:59:30.206Z,8.87
2018-03-16T06:00:30.188Z,8.94
2018-03-16T06:02:23.060Z,9.03
2018-03-16T06:03:23.015Z,8.79
2018-03-16T06:05:15.871Z,9.00
2018-03-16T06:06:15.852Z,8.94
2018-03-16T06:08:08.713Z,8.74
2018-03-16T06:09:08.678Z,8.81
2018-03-16T06:11:01.526Z,9.03
2018-03-16T06:12:01.504Z,8.84
2018-03-16T06:13:54.373Z,8.53
2018-03-16T06:14:54.333Z,8.70
2018-03-16T06:16:47.184Z,8.56
2018-03-16T06:17:47.161Z,8.60
2018-03-16T06:19:40.520Z,8.58
2018-03-16T06:20:40.484Z,8.58
2018-03-16T06:22:33.332Z,8.69
2018-03-16T06:23:33.313Z,8.53
2018-03-16T06:25:26.181Z,8.51
2018-03-16T06:26:26.142Z,8.58
2018-03-16T06:28:18.994Z,8.51
2018-03-16T06:29:18.975Z,8.58
2018-03-16T06:31:12.329Z,8.69
2018-03-16T06:32:12.291Z,8.61
2018-03-16T06:34:05.145Z,8.69
2018-03-16T06:35:05.121Z,8.71
2018-03-16T06:36:57.982Z,8.46
2018-03-16T06:37:57.947Z,8.31
2018-03-16T06:39:50.796Z,8.49
2018-03-16T06:40:50.777Z,8.53
2018-03-16T06:42:43.640Z,8.49
2018-03-16T06:43:43.604Z,8.52
2018-03-16T06:45:36.453Z,8.56
2018-03-16T06:46:36.433Z,8.53
2018-03-16T06:48:29.298Z,8.41
2018-03-16T06:49:29.263Z,8.41
2018-03-16T06:51:22.112Z,8.52
2018-03-16T06:52:22.093Z,8.46
2018-03-16T06:54:14.970Z,8.37
2018-03-16T06:55:14.932Z,8.42
2018-03-16T06:57:07.781Z,8.61
2018-03-16T06:58:07.758Z,8.55
2018-03-16T07:00:00.621Z,8.51
2018-03-16T07:01:00.584Z,8.60
2018-03-16T07:02:53.434Z,8.73
2018-03-16T07:03:53.434Z,8.69
2018-03-16T07:05:46.281Z,8.61
2018-03-16T07:06:46.247Z,8.66
2018-03-16T07:08:39.122Z,8.78
2018-03-16T07:09:39.070Z,8.69
2018-03-16T07:11:31.934Z,8.71
2018-03-16T07:12:31.896Z,8.69
2018-03-16T07:14:24.747Z,8.82
2018-03-16T07:15:24.726Z,8.91
2018-03-16T07:17:17.594Z,8.88
2018-03-16T07:18:17.555Z,9.06
2018-03-16T07:20:10.406Z,8.87
2018-03-16T07:21:10.380Z,8.76
2018-03-16T07:23:03.246Z,8.91
2018-03-16T07:24:03.209Z,8.92
2018-03-16T07:25:56.058Z,9.03
2018-03-16T07:26:56.039Z,8.95
2018-03-16T07:28:48.900Z,8.82
2018-03-16T07:29:48.863Z,8.71
2018-03-16T07:31:41.713Z,8.85
2018-03-16T07:32:41.691Z,8.92
2018-03-16T07:34:34.559Z,8.92
2018-03-16T07:35:34.521Z,9.03
2018-03-16T07:37:27.371Z,8.99
2018-03-16T07:38:27.348Z,8.88
2018-03-16T07:40:20.209Z,8.94
2018-03-16T07:41:20.175Z,8.94
2018-03-16T07:43:13.025Z,8.91
2018-03-16T07:44:13.005Z,8.99
2018-03-16T07:46:05.873Z,9.08
2018-03-16T07:47:05.838Z,9.04
2018-03-16T07:48:59.179Z,9.13
2018-03-16T07:49:59.153Z,9.18
2018-03-16T07:51:52.020Z,9.28
2018-03-16T07:52:52.000Z,9.19
2018-03-16T07:54:44.836Z,9.08
2018-03-16T07:55:44.816Z,9.13
2018-03-16T07:57:37.679Z,9.19
2018-03-16T07:58:37.640Z,9.28
2018-03-16T08:00:30.490Z,9.44
2018-03-16T08:01:30.468Z,9.41
2018-03-16T08:03:23.343Z,9.46
2018-03-16T08:04:23.306Z,9.44
2018-03-16T08:06:16.673Z,9.43
2018-03-16T08:07:16.644Z,9.54
2018-03-16T08:09:09.505Z,9.56
2018-03-16T08:10:09.471Z,9.55
2018-03-16T08:12:02.322Z,9.62
2018-03-16T08:13:02.332Z,9.72
2018-03-16T08:14:55.164Z,9.72
2018-03-16T08:15:55.124Z,9.59
2018-03-16T08:17:47.977Z,9.62
2018-03-16T08:18:47.957Z,9.76
2018-03-16T08:20:40.844Z,9.87
2018-03-16T08:21:40.792Z,9.84
2018-03-16T08:23:33.645Z,9.94
2018-03-16T08:24:33.624Z,10.01
2018-03-16T08:26:26.491Z,9.98
2018-03-16T08:27:26.454Z,9.97
2018-03-16T08:29:19.304Z,9.97
2018-03-16T08:30:19.285Z,9.99
2018-03-16T08:32:12.151Z,10.12
2018-03-16T08:33:12.113Z,10.20
2018-03-16T08:35:04.964Z,10.28
2018-03-16T08:36:04.947Z,10.16
2018-03-16T08:37:57.810Z,10.15
2018-03-16T08:38:57.774Z,10.17
2018-03-16T08:40:50.625Z,10.01
2018-03-16T08:41:50.603Z,10.04
2018-03-16T08:43:43.468Z,10.01
2018-03-16T08:44:43.432Z,10.13
2018-03-16T08:46:36.289Z,10.12
2018-03-16T08:47:36.265Z,10.22
2018-03-16T08:49:29.127Z,10.16
2018-03-16T08:50:29.092Z,10.12
2018-03-16T08:52:21.950Z,10.16
2018-03-16T08:53:21.921Z,10.22
2018-03-16T08:55:14.822Z,10.31
2018-03-16T08:56:14.761Z,10.33
2018-03-16T08:58:07.604Z,10.46
2018-03-16T08:59:07.584Z,10.44
2018-03-16T09:01:00.449Z,10.53
2018-03-16T09:02:00.413Z,10.61
2018-03-16T09:03:53.270Z,10.48
2018-03-16T09:04:53.249Z,10.54
2018-03-16T09:06:46.609Z,10.44
2018-03-16T09:07:46.586Z,10.37
2018-03-16T09:09:39.422Z,10.33
2018-03-16T09:10:39.401Z,10.44
2018-03-16T09:12:32.280Z,10.40
2018-03-16T09:13:32.230Z,10.35
2018-03-16T09:15:25.078Z,10.41
2018-03-16T09:16:25.057Z,10.41
2018-03-16T09:18:18.043Z,10.48
2018-03-16T09:19:17.894Z,10.34
2018-03-16T09:21:11.233Z,10.38
2018-03-16T09:22:11.212Z,10.38
2018-03-16T09:24:04.094Z,10.44
2018-03-16T09:25:04.045Z,10.35
2018-03-16T09:26:56.917Z,10.49
2018-03-16T09:27:56.895Z,10.51
2018-03-16T09:29:49.769Z,10.57
2018-03-16T09:30:49.733Z,10.54
2018-03-16T09:32:42.578Z,10.68
2018-03-16T09:33:42.560Z,10.63
2018-03-16T09:35:35.424Z,10.69
2018-03-16T09:36:35.387Z,10.71
2018-03-16T09:38:28.241Z,10.69
2018-03-16T09:39:28.221Z,10.67
2018-03-16T09:41:21.107Z,10.71
2018-03-16T09:42:21.120Z,10.74
2018-03-16T09:44:13.909Z,10.89
2018-03-16T09:45:13.889Z,10.72
2018-03-16T09:47:06.755Z,10.75
2018-03-16T09:48:06.716Z,10.72
2018-03-16T09:49:59.568Z,10.94
2018-03-16T09:50:59.549Z,10.97
2018-03-16T09:52:52.420Z,11.17
2018-03-16T09:53:52.386Z,11.19
2018-03-16T09:55:45.242Z,11.22
2018-03-16T09:56:45.220Z,11.27
2018-03-16T09:58:38.095Z,11.12
2018-03-16T09:59:38.055Z,11.10
2018-03-16T10:01:30.910Z,11.17
2018-03-16T10:02:30.890Z,11.30
2018-03-16T10:04:23.758Z,11.51
2018-03-16T10:05:23.721Z,11.45
2018-03-16T10:07:17.150Z,11.72
2018-03-16T10:08:16.554Z,11.94
2018-03-16T10:10:10.423Z,11.48
2018-03-16T10:11:10.382Z,11.40
2018-03-16T10:13:03.734Z,11.45
2018-03-16T10:14:03.712Z,11.40
2018-03-16T10:15:56.580Z,11.44
2018-03-16T10:16:56.545Z,11.51
2018-03-16T10:18:49.395Z,11.35
2018-03-16T10:19:49.375Z,11.33
2018-03-16T10:21:42.247Z,11.40
2018-03-16T10:22:42.208Z,11.47
2018-03-16T10:24:35.081Z,11.45
2018-03-16T10:25:35.064Z,11.62
2018-03-16T10:27:27.931Z,11.66
2018-03-16T10:28:27.895Z,11.55
2018-03-16T10:30:20.750Z,11.73
2018-03-16T10:31:20.730Z,11.63
2018-03-16T10:33:13.614Z,11.55
2018-03-16T10:34:13.564Z,11.73
2018-03-16T10:36:06.412Z,11.70
2018-03-16T10:37:06.456Z,11.75
2018-03-16T10:38:59.263Z,11.59
2018-03-16T10:39:59.226Z,11.44
2018-03-16T10:41:52.109Z,11.48
2018-03-16T10:42:52.090Z,11.48
2018-03-16T10:44:45.014Z,11.45
2018-03-16T10:45:44.946Z,11.48
2018-03-16T10:47:37.796Z,11.69
2018-03-16T10:48:37.782Z,11.86
2018-03-16T10:50:30.652Z,11.91
2018-03-16T10:51:30.609Z,12.07
2018-03-16T10:53:23.460Z,11.83
2018-03-16T10:54:23.443Z,11.95
2018-03-16T10:56:16.314Z,11.72
2018-03-16T10:57:16.276Z,11.81
2018-03-16T10:59:09.132Z,12.00
2018-03-16T11:00:09.102Z,12.00
2018-03-16T11:02:01.985Z,11.95
2018-03-16T11:03:01.964Z,11.95
2018-03-16T11:04:54.795Z,12.45
2018-03-16T11:05:54.772Z,12.49
2018-03-16T11:07:47.643Z,12.36
2018-03-16T11:08:47.605Z,12.47
2018-03-16T11:10:40.456Z,12.90
2018-03-16T11:11:40.433Z,12.78
2018-03-16T11:13:33.336Z,12.27
2018-03-16T11:14:33.273Z,12.28
2018-03-16T11:16:26.137Z,12.43
2018-03-16T11:17:26.115Z,12.31
2018-03-16T11:19:18.990Z,12.28
2018-03-16T11:20:18.949Z,12.45
2018-03-16T11:22:11.803Z,12.12
2018-03-16T11:23:11.786Z,12.15
2018-03-16T11:25:04.657Z,12.12
2018-03-16T11:26:04.618Z,12.18
2018-03-16T11:27:57.471Z,11.94
2018-03-16T11:28:57.451Z,11.95
2018-03-16T11:30:50.326Z,11.94
2018-03-16T11:31:50.286Z,11.75
2018-03-16T11:33:43.139Z,11.78
2018-03-16T11:34:43.128Z,11.77
2018-03-16T11:36:35.996Z,11.84
2018-03-16T11:37:35.958Z,11.78
2018-03-16T11:39:28.809Z,11.91
2018-03-16T11:40:28.792Z,11.94
2018-03-16T11:42:21.659Z,11.88
2018-03-16T11:43:21.630Z,11.91
2018-03-16T11:45:14.475Z,11.81
2018-03-16T11:46:14.456Z,12.09
2018-03-16T11:48:07.360Z,11.97
2018-03-16T11:49:07.328Z,11.94
2018-03-16T11:51:00.141Z,11.81
2018-03-16T11:52:00.120Z,11.99
2018-03-16T11:53:52.996Z,12.07
2018-03-16T11:54:52.958Z,11.97
2018-03-16T11:56:45.813Z,12.02
2018-03-16T11:57:45.790Z,12.00
2018-03-16T11:59:38.663Z,12.06
2018-03-16T12:00:38.625Z,11.99
2018-03-16T12:02:31.481Z,12.18
2018-03-16T12:03:31.460Z,12.29
2018-03-16T12:05:24.328Z,12.32
2018-03-16T12:06:24.293Z,12.57
2018-03-16T12:08:17.148Z,12.37
2018-03-16T12:09:17.126Z,12.25
2018-03-16T12:11:09.998Z,12.36
2018-03-16T12:12:09.964Z,12.49
2018-03-16T12:14:02.819Z,12.40
2018-03-16T12:15:02.802Z,12.39
2018-03-16T12:16:55.671Z,12.36
2018-03-16T12:17:55.636Z,12.36
2018-03-16T12:19:48.485Z,12.55
2018-03-16T12:20:48.471Z,12.39
2018-03-16T12:22:41.342Z,12.46
2018-03-16T12:23:41.307Z,12.57
2018-03-16T12:25:34.173Z,12.82
2018-03-16T12:26:34.142Z,12.76
2018-03-16T12:28:49.160Z,12.90
2018-03-16T12:29:26.982Z,12.93
2018-03-16T12:31:19.827Z,13.11
2018-03-16T12:32:19.808Z,12.72
2018-03-16T12:34:12.793Z,12.93
2018-03-16T12:35:12.676Z,13.03
2018-03-16T12:37:05.530Z,12.94
2018-03-16T12:38:05.513Z,13.05
2018-03-16T12:39:58.417Z,13.03
2018-03-16T12:40:58.346Z,13.18
2018-03-16T12:42:51.239Z,13.19
2018-03-16T12:43:51.184Z,13.16
2018-03-16T12:45:44.057Z,13.57
2018-03-16T12:46:44.022Z,14.41
2018-03-16T12:48:36.876Z,13.67
2018-03-16T12:49:36.858Z,13.95
2018-03-16T12:51:29.770Z,14.45
2018-03-16T12:52:29.700Z,14.08
2018-03-16T12:54:22.558Z,14.72
2018-03-16T12:55:22.580Z,14.66
2018-03-16T12:57:15.426Z,14.86
2018-03-16T12:58:15.387Z,15.72
2018-03-16T13:00:08.249Z,20.96
2018-03-16T13:01:08.232Z,24.10
2018-03-16T13:03:01.113Z,20.55
2018-03-16T13:04:01.078Z,24.23
2018-03-16T13:05:53.939Z,25.83
2018-03-16T13:06:53.916Z,23.68
2018-03-16T13:08:46.794Z,20.63
2018-03-16T13:09:46.762Z,17.94
2018-03-16T13:11:39.628Z,16.32
2018-03-16T13:12:39.614Z,17.49
2018-03-16T13:14:32.484Z,16.50
2018-03-16T13:15:32.451Z,15.88
2018-03-16T13:17:25.314Z,16.04
2018-03-16T13:18:25.296Z,15.73
2018-03-16T13:20:18.168Z,16.91
2018-03-16T13:21:18.140Z,17.54
2018-03-16T13:23:11.036Z,16.57
2018-03-16T13:24:10.983Z,16.08
2018-03-16T13:26:03.860Z,17.36
2018-03-16T13:27:03.831Z,16.68
2018-03-16T13:28:56.699Z,15.09
2018-03-16T13:29:56.680Z,16.26
2018-03-16T13:31:49.565Z,16.93
2018-03-16T13:32:49.529Z,16.57
2018-03-16T13:34:42.394Z,15.88
2018-03-16T13:35:42.377Z,18.03
2018-03-16T13:37:35.255Z,17.14
2018-03-16T13:38:35.224Z,17.38
2018-03-16T13:40:28.087Z,16.15
2018-03-16T13:41:28.072Z,16.71
2018-03-16T13:43:20.949Z,19.37
2018-03-16T13:44:20.920Z,18.68
2018-03-16T13:46:13.794Z,18.66
2018-03-16T13:47:13.827Z,17.98
2018-03-16T13:49:06.651Z,17.74
2018-03-16T13:50:06.621Z,16.61
2018-03-16T13:51:59.553Z,15.59
2018-03-16T13:52:59.468Z,15.10
2018-03-16T13:54:52.347Z,15.27
2018-03-16T13:55:52.315Z,15.07
2018-03-16T13:57:45.196Z,14.66
2018-03-16T13:58:45.182Z,14.84
2018-03-16T14:00:38.049Z,14.47
2018-03-16T14:01:38.026Z,14.40
2018-03-16T14:03:30.888Z,14.47
2018-03-16T14:04:30.868Z,14.47
2018-03-16T14:06:23.774Z,14.54
2018-03-16T14:07:23.710Z,14.30
2018-03-16T14:09:16.570Z,14.15
2018-03-16T14:10:16.593Z,14.20
2018-03-16T14:12:09.423Z,14.20
2018-03-16T14:13:09.392Z,14.30
2018-03-16T14:15:02.249Z,14.32
2018-03-16T14:16:02.230Z,14.35
2018-03-16T14:17:55.101Z,14.53
2018-03-16T14:18:55.095Z,14.48
2018-03-16T14:20:47.923Z,14.25
2018-03-16T14:21:47.906Z,14.10
2018-03-16T14:23:40.779Z,13.95
2018-03-16T14:24:40.746Z,13.92
2018-03-16T14:26:33.605Z,13.81
2018-03-16T14:27:33.588Z,13.89
2018-03-16T14:29:26.467Z,13.96
2018-03-16T14:30:26.434Z,14.04
2018-03-16T14:32:19.291Z,13.75
2018-03-16T14:33:19.273Z,13.90
2018-03-16T14:35:12.157Z,13.70
2018-03-16T14:36:12.114Z,13.72
2018-03-16T14:38:04.971Z,13.77
2018-03-16T14:39:04.955Z,13.75
2018-03-16T14:40:57.826Z,13.74
2018-03-16T14:41:57.799Z,13.71
2018-03-16T14:43:50.659Z,13.74
2018-03-16T14:44:50.641Z,13.97
2018-03-16T14:46:43.512Z,13.93
2018-03-16T14:47:43.479Z,13.89
2018-03-16T14:49:36.867Z,13.93
2018-03-16T14:50:36.816Z,14.08
2018-03-16T14:52:29.722Z,14.20
2018-03-16T14:53:29.689Z,14.32
2018-03-16T14:55:22.549Z,14.78
2018-03-16T14:56:22.531Z,14.89
2018-03-16T14:58:15.413Z,14.68
2018-03-16T14:59:15.375Z,15.00
2018-03-16T15:01:08.234Z,14.89
2018-03-16T15:02:08.219Z,14.97
2018-03-16T15:04:01.095Z,15.43
2018-03-16T15:05:01.060Z,15.44
2018-03-16T15:06:53.917Z,15.90
2018-03-16T15:07:53.902Z,16.53
2018-03-16T15:09:46.783Z,17.64
2018-03-16T15:10:46.745Z,18.34
2018-03-16T15:12:39.609Z,19.02
2018-03-16T15:13:39.589Z,19.41
2018-03-16T15:15:32.466Z,20.16
2018-03-16T15:16:32.434Z,20.41
2018-03-16T15:18:25.297Z,20.36
2018-03-16T15:19:25.279Z,19.82
2018-03-16T15:21:18.163Z,19.31
2018-03-16T15:22:18.130Z,19.27
2018-03-16T15:24:10.996Z,19.44
2018-03-16T15:25:10.980Z,19.88
2018-03-16T15:27:03.864Z,19.30
2018-03-16T15:28:03.836Z,18.84
2018-03-16T15:29:56.700Z,18.62
2018-03-16T15:30:56.687Z,17.86
2018-03-16T15:32:49.568Z,18.03
2018-03-16T15:33:49.538Z,18.78
2018-03-16T15:35:42.405Z,18.88
2018-03-16T15:36:42.388Z,18.63
2018-03-16T15:38:35.270Z,18.56
2018-03-16T15:39:35.242Z,18.49
2018-03-16T15:41:28.101Z,18.63
2018-03-16T15:42:28.092Z,19.30
2018-03-16T15:44:20.976Z,19.30
2018-03-16T15:45:20.946Z,19.55
2018-03-16T15:47:13.817Z,20.10
2018-03-16T15:48:13.802Z,19.86
2018-03-16T15:50:06.706Z,19.85
2018-03-16T15:51:06.655Z,19.30
2018-03-16T15:52:59.520Z,19.04
2018-03-16T15:53:59.506Z,19.51
2018-03-16T15:55:52.392Z,19.29
2018-03-16T15:56:52.370Z,19.26
2018-03-16T15:58:45.227Z,19.40
2018-03-16T15:59:45.213Z,18.99
2018-03-16T16:01:38.104Z,18.29
2018-03-16T16:02:38.075Z,17.90
2018-03-16T16:04:30.935Z,17.26
2018-03-16T16:05:30.923Z,17.06
2018-03-16T16:07:23.851Z,16.86
2018-03-16T16:08:23.791Z,17.20
2018-03-16T16:10:16.703Z,17.51
2018-03-16T16:11:16.642Z,17.33
2018-03-16T16:13:09.523Z,16.99
2018-03-16T16:14:09.490Z,16.81
2018-03-16T16:16:02.351Z,16.58
2018-03-16T16:17:02.338Z,17.01
2018-03-16T16:18:55.213Z,16.91
2018-03-16T16:19:55.182Z,16.87
2018-03-16T16:21:48.044Z,17.19
2018-03-16T16:22:48.068Z,17.20
2018-03-16T16:24:40.916Z,17.20
2018-03-16T16:25:40.882Z,17.39
2018-03-16T16:27:33.742Z,17.15
2018-03-16T16:28:33.726Z,17.34
2018-03-16T16:30:26.600Z,16.91
2018-03-16T16:31:26.569Z,16.86
2018-03-16T16:33:19.426Z,17.12
2018-03-16T16:34:19.419Z,17.23
2018-03-16T16:36:12.302Z,17.02
2018-03-16T16:37:12.270Z,16.75
2018-03-16T16:39:05.127Z,16.50
2018-03-16T16:40:05.112Z,16.50
2018-03-16T16:41:57.985Z,16.43
2018-03-16T16:42:57.954Z,16.31
2018-03-16T16:44:50.816Z,15.77
2018-03-16T16:45:50.799Z,15.80
2018-03-16T16:47:43.719Z,16.05
2018-03-16T16:48:43.647Z,15.94
2018-03-16T16:50:36.510Z,15.98
2018-03-16T16:51:36.493Z,15.90
2018-03-16T16:53:29.372Z,15.75
2018-03-16T16:54:29.341Z,15.46
2018-03-16T16:56:22.200Z,15.54
2018-03-16T16:57:22.183Z,15.46
2018-03-16T16:59:15.110Z,15.55
2018-03-16T17:00:15.037Z,15.42
2018-03-16T17:02:07.891Z,15.44
2018-03-16T17:03:07.890Z,15.47
2018-03-16T17:05:01.249Z,15.37
2018-03-16T17:06:01.247Z,15.21
2018-03-16T17:07:54.079Z,15.15
2018-03-16T17:08:54.065Z,15.06
2018-03-16T17:10:46.941Z,15.17
2018-03-16T17:11:46.906Z,15.06
2018-03-16T17:13:39.771Z,15.03
2018-03-16T17:14:39.756Z,15.07
2018-03-16T17:16:32.643Z,14.88
2018-03-16T17:17:32.624Z,14.73
2018-03-16T17:19:26.035Z,14.70
2018-03-16T17:20:25.938Z,14.73
2018-03-16T17:22:19.303Z,14.59
2018-03-16T17:23:19.278Z,14.59
2018-03-16T17:25:12.132Z,14.66
2018-03-16T17:26:12.156Z,14.65
2018-03-16T17:28:04.993Z,14.68
2018-03-16T17:29:04.960Z,14.85
2018-03-16T17:30:57.821Z,14.59
2018-03-16T17:31:57.948Z,14.55
2018-03-16T17:33:50.689Z,14.50
2018-03-16T17:34:50.660Z,14.60
2018-03-16T17:36:44.012Z,14.54
2018-03-16T17:37:43.997Z,14.53
2018-03-16T17:39:36.871Z,14.68
2018-03-16T17:40:36.848Z,14.58
2018-03-16T17:42:29.692Z,14.48
2018-03-16T17:43:29.674Z,14.65
2018-03-16T17:45:22.551Z,14.72
2018-03-16T17:46:22.512Z,14.92
2018-03-16T17:48:15.374Z,14.69
2018-03-16T17:49:15.355Z,14.60
2018-03-16T17:51:08.724Z,14.48
2018-03-16T17:52:08.689Z,14.37
2018-03-16T17:54:02.039Z,14.28
2018-03-16T17:55:02.022Z,14.33
2018-03-16T17:56:54.906Z,14.32
2018-03-16T17:57:54.861Z,14.33
2018-03-16T17:59:47.717Z,14.36
2018-03-16T18:00:47.703Z,14.44
2018-03-16T18:02:40.577Z,14.45
2018-03-16T18:03:40.544Z,14.37
2018-03-16T18:05:33.401Z,14.40
2018-03-16T18:06:33.384Z,14.29
2018-03-16T18:08:26.255Z,14.47
2018-03-16T18:09:26.222Z,14.47
2018-03-16T18:11:19.129Z,14.36
2018-03-16T18:12:19.066Z,14.33
2018-03-16T18:14:12.126Z,14.08
2018-03-16T18:15:11.928Z,14.05
2018-03-16T18:17:04.853Z,13.92
2018-03-16T18:18:04.817Z,13.74
2018-03-16T18:19:57.691Z,13.75
2018-03-16T18:20:57.659Z,13.85
2018-03-16T18:22:50.520Z,13.72
2018-03-16T18:23:50.492Z,13.78
2018-03-16T18:25:43.363Z,13.49
2018-03-16T18:26:43.330Z,13.49
2018-03-16T18:28:36.191Z,13.52
2018-03-16T18:29:36.169Z,13.56
2018-03-16T18:31:29.046Z,13.50
2018-03-16T18:32:29.007Z,13.52
2018-03-16T18:34:21.866Z,13.47
2018-03-16T18:35:21.848Z,13.31
2018-03-16T18:37:14.772Z,13.31
2018-03-16T18:38:14.696Z,13.47
2018-03-16T18:40:07.544Z,13.35
2018-03-16T18:41:07.527Z,13.30
2018-03-16T18:43:00.394Z,13.38
2018-03-16T18:44:00.362Z,13.20
2018-03-16T18:45:53.229Z,13.19
2018-03-16T18:46:53.200Z,13.25
2018-03-16T18:48:46.069Z,13.22